createdAt,value
2019-05-10T00:01:45.845Z,6.20
2019-05-10T00:04:32.058Z,5.80
2019-05-10T00:07:17.864Z,6.33
2019-05-10T00:09:45.624Z,5.60
2019-05-10T00:12:15.683Z,5.87
2019-05-10T00:14:45.753Z,5.70
2019-05-10T00:17:15.818Z,6.10
2019-05-10T00:19:44.246Z,6.25
2019-05-10T00:22:12.738Z,6.25
2019-05-10T00:24:41.280Z,6.10
2019-05-10T00:27:09.782Z,6.87
2019-05-10T00:29:38.358Z,6.50
2019-05-10T00:32:06.839Z,6.65
2019-05-10T00:34:35.269Z,6.50
2019-05-10T00:37:03.700Z,7.00
2019-05-10T00:39:32.169Z,6.60
2019-05-10T00:42:00.593Z,6.50
2019-05-10T00:44:29.041Z,6.95
2019-05-10T00:46:57.525Z,7.12
2019-05-10T00:49:25.958Z,7.47
2019-05-10T00:51:54.392Z,7.53
2019-05-10T00:54:22.877Z,7.75
2019-05-10T00:56:51.305Z,7.22
2019-05-10T00:59:19.725Z,7.08
2019-05-10T01:01:48.226Z,6.65
2019-05-10T01:04:16.645Z,6.87
2019-05-10T01:06:45.144Z,7.20
2019-05-10T01:09:13.566Z,7.58
2019-05-10T01:11:42.105Z,8.30
2019-05-10T01:14:10.786Z,7.80
2019-05-10T01:16:39.217Z,8.18
2019-05-10T01:19:07.641Z,8.17
2019-05-10T01:21:36.068Z,8.00
2019-05-10T01:24:04.698Z,8.40
2019-05-10T01:26:33.430Z,8.15
2019-05-10T01:29:01.853Z,8.00
2019-05-10T01:31:30.290Z,9.20
2019-05-10T01:33:58.710Z,8.77
2019-05-10T01:36:27.138Z,9.75
2019-05-10T01:38:55.833Z,8.73
2019-05-10T01:41:24.354Z,9.48
2019-05-10T01:43:52.836Z,9.30
2019-05-10T01:46:21.279Z,9.43
2019-05-10T01:48:52.692Z,10.00
2019-05-10T01:51:21.124Z,9.35
2019-05-10T01:53:49.552Z,10.88
2019-05-10T01:56:17.986Z,10.00
2019-05-10T01:58:46.431Z,10.20
2019-05-10T02:01:14.914Z,9.50
2019-05-10T02:03:43.348Z,10.10
2019-05-10T02:06:11.793Z,9.53
2019-05-10T02:08:40.226Z,10.40
2019-05-10T02:11:08.655Z,11.63
2019-05-10T02:13:37.100Z,11.60
2019-05-10T02:16:05.541Z,12.27
2019-05-10T02:18:34.222Z,13.95
2019-05-10T02:21:02.657Z,14.85
2019-05-10T02:23:31.345Z,15.93
2019-05-10T02:26:09.105Z,16.15
2019-05-10T02:28:29.949Z,16.80
2019-05-10T02:30:58.374Z,17.23
2019-05-10T02:33:26.810Z,16.50
2019-05-10T02:35:55.243Z,18.15
2019-05-10T02:38:23.699Z,16.43
2019-05-10T02:40:52.178Z,17.48
2019-05-10T02:43:20.686Z,17.30
2019-05-10T02:45:49.289Z,17.75
2019-05-10T02:48:17.770Z,17.00
2019-05-10T02:50:46.345Z,17.10
2019-05-10T02:53:15.456Z,17.50
2019-05-10T02:55:43.880Z,18.55
2019-05-10T02:58:15.159Z,18.15
2019-05-10T03:00:45.782Z,17.85
2019-05-10T03:03:15.875Z,17.73
2019-05-10T03:05:48.380Z,18.57
2019-05-10T03:08:15.686Z,17.90
2019-05-10T03:10:56.257Z,19.48
2019-05-10T03:13:29.164Z,18.82
2019-05-10T03:15:59.135Z,20.08
2019-05-10T03:18:30.746Z,19.65
2019-05-10T03:21:00.725Z,19.82
2019-05-10T03:23:29.796Z,21.87
2019-05-10T03:25:59.076Z,20.05
2019-05-10T03:28:27.513Z,20.00
2019-05-10T03:30:56.022Z,19.25
2019-05-10T03:33:24.702Z,19.83
2019-05-10T03:35:53.129Z,19.50
2019-05-10T03:38:21.731Z,18.65
2019-05-10T03:40:50.239Z,19.60
2019-05-10T03:43:18.753Z,20.70
2019-05-10T03:45:47.437Z,19.48
2019-05-10T03:48:15.862Z,19.80
2019-05-10T03:50:44.298Z,18.90
2019-05-10T03:53:12.725Z,18.00
2019-05-10T03:55:41.185Z,17.82
2019-05-10T03:58:09.681Z,19.57
2019-05-10T04:00:38.146Z,19.00
2019-05-10T04:03:06.610Z,20.85
2019-05-10T04:05:35.086Z,18.80
2019-05-10T04:08:03.522Z,18.42
2019-05-10T04:10:31.970Z,19.87
2019-05-10T04:13:00.397Z,18.57
2019-05-10T04:15:28.829Z,19.95
2019-05-10T04:17:57.257Z,18.62
2019-05-10T04:20:25.694Z,18.90
2019-05-10T04:22:54.399Z,19.27
2019-05-10T04:25:22.893Z,19.32
2019-05-10T04:27:51.325Z,19.90
2019-05-10T04:30:21.364Z,18.98
2019-05-10T04:32:49.865Z,18.40
2019-05-10T04:35:18.313Z,19.35
2019-05-10T04:37:46.761Z,18.90
2019-05-10T04:40:15.260Z,19.73
2019-05-10T04:42:43.693Z,19.62
2019-05-10T04:45:13.250Z,20.23
2019-05-10T04:47:41.703Z,20.52
2019-05-10T04:50:10.370Z,22.32
2019-05-10T04:52:38.806Z,22.32
2019-05-10T04:55:07.785Z,21.27
2019-05-10T04:57:50.105Z,21.82
2019-05-10T05:00:09.623Z,22.10
2019-05-10T05:02:38.060Z,22.35
2019-05-10T05:05:07.341Z,22.30
2019-05-10T05:07:35.772Z,23.07
2019-05-10T05:10:08.629Z,23.12
2019-05-10T05:12:37.321Z,24.37
2019-05-10T05:15:09.105Z,24.17
2019-05-10T05:17:37.581Z,23.47
2019-05-10T05:20:06.322Z,24.87
2019-05-10T05:22:34.809Z,25.80
2019-05-10T05:25:04.247Z,26.00
2019-05-10T05:27:32.694Z,25.68
2019-05-10T05:30:01.126Z,25.90
2019-05-10T05:32:29.566Z,25.52
2019-05-10T05:34:58.001Z,25.55
2019-05-10T05:37:26.431Z,25.62
2019-05-10T05:39:54.869Z,25.17
2019-05-10T05:42:27.884Z,23.75
2019-05-10T05:44:53.717Z,23.05
2019-05-10T05:47:22.146Z,22.60
2019-05-10T05:49:50.643Z,24.23
2019-05-10T05:52:19.093Z,23.57
2019-05-10T05:54:47.525Z,23.47
2019-05-10T05:57:16.234Z,23.25
2019-05-10T05:59:44.861Z,23.85
2019-05-10T06:02:16.152Z,22.42
2019-05-10T06:04:46.273Z,22.70
2019-05-10T06:07:14.750Z,24.25
2019-05-10T06:09:43.191Z,23.90
2019-05-10T06:12:12.818Z,23.32
2019-05-10T06:14:42.992Z,23.32
2019-05-10T06:17:12.009Z,24.87
2019-05-10T06:19:40.460Z,23.98
2019-05-10T06:22:08.892Z,24.60
2019-05-10T06:24:37.331Z,25.17
2019-05-10T06:27:05.760Z,25.30
2019-05-10T06:29:34.206Z,26.35
2019-05-10T06:32:02.628Z,27.20
2019-05-10T06:34:32.059Z,26.83
2019-05-10T06:37:01.214Z,27.25
2019-05-10T06:39:29.647Z,29.00
2019-05-10T06:41:58.434Z,30.50
2019-05-10T06:44:31.224Z,29.57
2019-05-10T06:47:02.145Z,30.95
2019-05-10T06:49:27.296Z,30.52
2019-05-10T06:51:55.732Z,28.80
2019-05-10T06:54:24.156Z,27.02
2019-05-10T06:56:52.610Z,25.17
2019-05-10T06:59:24.784Z,25.55
2019-05-10T07:01:52.204Z,23.02
2019-05-10T07:04:20.757Z,22.98
2019-05-10T07:06:49.200Z,21.02
2019-05-10T07:09:17.627Z,18.40
2019-05-10T07:11:46.068Z,17.48
2019-05-10T07:14:14.504Z,16.45
2019-05-10T07:16:42.946Z,13.60
2019-05-10T07:19:11.377Z,10.65
2019-05-10T07:21:44.824Z,10.87
2019-05-10T07:24:10.233Z,10.48
2019-05-10T07:26:38.961Z,10.98
2019-05-10T07:29:07.440Z,10.80
2019-05-10T07:31:37.822Z,12.00
2019-05-10T07:34:09.751Z,12.30
2019-05-10T07:36:36.409Z,14.38
2019-05-10T07:39:08.274Z,15.72
2019-05-10T07:41:36.702Z,15.10
2019-05-10T07:44:08.054Z,15.38
2019-05-10T07:46:40.195Z,15.40
2019-05-10T07:49:05.454Z,15.75
2019-05-10T07:51:33.919Z,15.23
2019-05-10T07:54:04.585Z,14.98
2019-05-10T07:56:32.858Z,15.55
2019-05-10T07:59:01.307Z,15.93
2019-05-10T08:01:32.852Z,17.02
2019-05-10T08:04:00.057Z,16.00
2019-05-10T08:06:33.999Z,15.83
2019-05-10T08:09:01.853Z,16.60
2019-05-10T08:11:28.801Z,16.70
2019-05-10T08:14:05.845Z,15.33
2019-05-10T08:16:29.016Z,15.40
2019-05-10T08:19:00.907Z,16.07
2019-05-10T08:21:27.802Z,15.48
2019-05-10T08:23:59.132Z,15.70
2019-05-10T08:26:26.553Z,15.80
2019-05-10T08:28:55.059Z,14.60
2019-05-10T08:31:26.216Z,13.70
2019-05-10T08:33:58.601Z,13.23
2019-05-10T08:36:23.803Z,14.23
2019-05-10T08:39:05.105Z,13.98
2019-05-10T08:41:22.553Z,14.20
2019-05-10T08:43:52.572Z,14.10
2019-05-10T08:46:28.663Z,15.63
2019-05-10T08:48:53.758Z,14.10
2019-05-10T08:51:22.789Z,14.58
2019-05-10T08:53:55.913Z,14.95
2019-05-10T08:56:24.145Z,16.00
2019-05-10T08:58:53.706Z,15.13
2019-05-10T09:01:29.508Z,15.00
2019-05-10T09:03:59.042Z,14.60
2019-05-10T09:06:22.209Z,13.70
2019-05-10T09:08:53.014Z,14.63
2019-05-10T09:11:23.111Z,14.85
2019-05-10T09:13:53.441Z,14.65
2019-05-10T09:16:23.682Z,15.03
2019-05-10T09:18:53.482Z,14.38
2019-05-10T09:21:22.443Z,15.20
2019-05-10T09:24:01.150Z,14.35
2019-05-10T09:26:22.632Z,11.83
2019-05-10T09:28:53.429Z,12.68
2019-05-10T09:31:25.281Z,12.78
2019-05-10T09:33:54.224Z,11.95
2019-05-10T09:36:25.165Z,11.22
2019-05-10T09:38:52.713Z,10.50
2019-05-10T09:41:22.665Z,10.30
2019-05-10T09:43:53.610Z,10.45
2019-05-10T09:46:22.867Z,10.30
2019-05-10T09:48:54.522Z,9.80
2019-05-10T09:51:28.021Z,8.95
2019-05-10T09:53:52.154Z,8.47
2019-05-10T09:56:20.621Z,8.08
2019-05-10T09:58:50.731Z,8.43
2019-05-10T10:01:21.756Z,7.35
2019-05-10T10:03:49.380Z,7.03
2019-05-10T10:06:17.869Z,7.20
2019-05-10T10:08:51.226Z,7.33
2019-05-10T10:11:18.758Z,6.60
2019-05-10T10:13:50.265Z,7.00
2019-05-10T10:16:19.010Z,5.50
2019-05-10T10:18:47.780Z,5.90
2019-05-10T10:21:18.828Z,5.37
2019-05-10T10:23:46.524Z,5.60
2019-05-10T10:26:18.813Z,6.42
2019-05-10T10:28:49.817Z,6.45
2019-05-10T10:31:27.018Z,6.45
2019-05-10T10:33:57.349Z,6.80
2019-05-10T10:36:15.831Z,7.05
2019-05-10T10:38:45.343Z,6.50
2019-05-10T10:41:19.152Z,7.05
2019-05-10T10:43:44.590Z,7.40
2019-05-10T10:46:13.096Z,6.90
2019-05-10T10:48:43.651Z,7.20
2019-05-10T10:51:11.702Z,6.42
2019-05-10T10:53:40.129Z,6.17
2019-05-10T10:56:08.583Z,6.00
2019-05-10T10:58:37.085Z,6.08
2019-05-10T11:01:10.901Z,5.20
2019-05-10T11:03:35.666Z,4.43
2019-05-10T11:06:04.165Z,4.20
2019-05-10T11:08:33.192Z,3.80
2019-05-10T11:11:02.183Z,3.62
2019-05-10T11:13:44.163Z,3.20
2019-05-10T11:16:09.611Z,2.80
2019-05-10T11:18:31.759Z,3.08
2019-05-10T11:21:01.971Z,3.20
2019-05-10T11:23:34.267Z,3.00
2019-05-10T11:26:01.327Z,3.20
2019-05-10T11:28:38.467Z,3.58
2019-05-10T11:31:01.069Z,3.50
2019-05-10T11:33:32.977Z,3.80
2019-05-10T11:36:03.922Z,3.90
2019-05-10T11:38:31.711Z,3.77
2019-05-10T11:41:02.044Z,3.85
2019-05-10T11:43:31.366Z,3.53
2019-05-10T11:45:59.916Z,3.70
2019-05-10T11:48:36.827Z,4.00
2019-05-10T11:50:58.568Z,3.50
2019-05-10T11:53:27.037Z,4.00
2019-05-10T11:55:55.549Z,4.15
2019-05-10T11:58:24.019Z,4.05
2019-05-10T12:00:56.507Z,3.83
2019-05-10T12:03:23.560Z,3.72
2019-05-10T12:06:03.910Z,3.83
2019-05-10T12:08:22.495Z,3.70
2019-05-10T12:10:53.721Z,3.10
2019-05-10T12:13:25.008Z,3.60
2019-05-10T12:15:53.917Z,3.70
2019-05-10T12:18:26.931Z,3.87
2019-05-10T12:21:08.675Z,4.00
2019-05-10T12:26:33.846Z,4.20
2019-05-10T12:27:07.746Z,4.25
2019-05-10T12:28:28.466Z,4.72
2019-05-10T12:30:53.441Z,4.20
2019-05-10T12:33:27.647Z,4.75
2019-05-10T12:35:52.125Z,4.25
2019-05-10T12:38:23.673Z,4.78
2019-05-10T12:40:51.376Z,4.60
2019-05-10T12:43:21.102Z,4.30
2019-05-10T12:45:51.716Z,4.70
2019-05-10T12:48:23.184Z,4.40
2019-05-10T12:50:52.240Z,4.40
2019-05-10T12:53:21.454Z,3.80
2019-05-10T12:55:50.066Z,4.03
2019-05-10T12:58:18.518Z,4.30
2019-05-10T13:00:52.681Z,3.70
2019-05-10T13:03:19.267Z,3.60
2019-05-10T13:05:52.685Z,3.70
2019-05-10T13:08:17.659Z,3.50
2019-05-10T13:10:49.644Z,3.20
2019-05-10T13:13:17.415Z,3.00
2019-05-10T13:15:46.678Z,2.60
2019-05-10T13:18:15.110Z,2.70
2019-05-10T13:20:43.621Z,2.30
2019-05-10T13:23:15.905Z,2.70
2019-05-10T13:25:42.184Z,2.50
2019-05-10T13:28:11.695Z,2.72
2019-05-10T13:30:40.324Z,2.90
2019-05-10T13:33:08.762Z,2.40
2019-05-10T13:35:37.187Z,2.47
2019-05-10T13:38:06.480Z,2.30
2019-05-10T13:40:38.912Z,2.30
2019-05-10T13:43:05.266Z,2.62
2019-05-10T13:45:37.761Z,2.60
2019-05-10T13:48:04.146Z,2.90
2019-05-10T13:50:33.379Z,2.77
2019-05-10T13:53:01.857Z,2.80
2019-05-10T13:55:30.316Z,3.12
2019-05-10T13:57:58.771Z,2.70
2019-05-10T14:00:33.084Z,3.00
2019-05-10T14:02:57.497Z,3.40
2019-05-10T14:05:25.937Z,2.80
2019-05-10T14:07:54.385Z,2.95
2019-05-10T14:10:23.715Z,3.08
2019-05-10T14:12:56.174Z,3.30
2019-05-10T14:15:23.182Z,3.22
2019-05-10T14:17:51.618Z,3.35
2019-05-10T14:20:25.318Z,3.30
2019-05-10T14:22:55.865Z,3.25
2019-05-10T14:25:20.653Z,3.10
2019-05-10T14:27:49.517Z,3.40
2019-05-10T14:30:19.094Z,3.37
2019-05-10T14:32:47.578Z,2.67
2019-05-10T14:35:21.715Z,3.30
2019-05-10T14:37:47.994Z,3.20
2019-05-10T14:40:26.604Z,3.12
2019-05-10T14:42:46.690Z,3.05
2019-05-10T14:45:15.426Z,3.10
2019-05-10T14:47:47.796Z,3.00
2019-05-10T14:50:19.627Z,3.60
2019-05-10T14:52:44.717Z,3.20
2019-05-10T14:55:13.226Z,3.25
2019-05-10T14:57:41.726Z,3.80
2019-05-10T15:00:10.539Z,3.30
2019-05-10T15:02:39.013Z,3.00
2019-05-10T15:05:15.444Z,3.50
2019-05-10T15:07:37.755Z,3.12
2019-05-10T15:10:06.818Z,3.30
2019-05-10T15:12:35.251Z,3.30
2019-05-10T15:15:04.322Z,3.20
2019-05-10T15:17:32.774Z,2.90
2019-05-10T15:20:01.459Z,3.05
2019-05-10T15:22:29.885Z,2.70
2019-05-10T15:24:58.313Z,2.85
2019-05-10T15:27:26.760Z,2.40
2019-05-10T15:30:02.898Z,2.80
2019-05-10T15:32:25.325Z,2.60
2019-05-10T15:35:06.335Z,2.90
2019-05-10T15:37:23.899Z,2.90
2019-05-10T15:39:52.590Z,2.77
2019-05-10T15:42:22.017Z,3.00
2019-05-10T15:44:50.639Z,2.50
2019-05-10T15:47:20.967Z,2.95
2019-05-10T15:49:49.497Z,2.90
2019-05-10T15:52:18.313Z,3.35
2019-05-10T15:54:47.249Z,3.10
2019-05-10T15:57:20.187Z,3.30
2019-05-10T15:59:50.847Z,3.40
2019-05-10T16:02:16.172Z,3.10
2019-05-10T16:04:44.642Z,3.00
2019-05-10T16:07:14.555Z,3.00
2019-05-10T16:09:43.283Z,3.20
2019-05-10T16:12:12.024Z,3.20
2019-05-10T16:14:41.232Z,2.80
2019-05-10T16:17:16.907Z,3.20
2019-05-10T16:19:40.779Z,3.40
2019-05-10T16:22:09.190Z,2.90
2019-05-10T16:24:37.629Z,3.45
2019-05-10T16:27:06.062Z,2.80
2019-05-10T16:29:40.135Z,3.10
2019-05-10T16:32:04.779Z,3.30
2019-05-10T16:34:34.238Z,3.60
2019-05-10T16:37:02.811Z,3.00
2019-05-10T16:39:31.352Z,3.80
2019-05-10T16:41:59.769Z,4.10
2019-05-10T16:44:28.197Z,3.50
2019-05-10T16:46:56.633Z,3.20
2019-05-10T16:49:25.068Z,3.40
2019-05-10T16:51:53.521Z,3.72
2019-05-10T16:54:25.362Z,3.27
2019-05-10T16:56:59.475Z,3.40
2019-05-10T16:59:24.468Z,3.20
2019-05-10T17:01:52.378Z,3.80
2019-05-10T17:04:20.813Z,3.40
2019-05-10T17:06:49.247Z,3.20
2019-05-10T17:09:19.511Z,2.80
2019-05-10T17:11:48.655Z,3.60
2019-05-10T17:14:17.785Z,3.00
2019-05-10T17:16:49.561Z,3.30
2019-05-10T17:19:17.036Z,3.00
2019-05-10T17:21:45.568Z,3.47
2019-05-10T17:24:18.613Z,3.12
2019-05-10T17:26:44.247Z,3.57
2019-05-10T17:29:14.764Z,3.65
2019-05-10T17:31:45.767Z,3.30
2019-05-10T17:34:22.143Z,3.10
2019-05-10T17:36:43.158Z,3.10
2019-05-10T17:39:11.630Z,2.90
2019-05-10T17:41:40.077Z,3.25
2019-05-10T17:44:08.509Z,3.90
2019-05-10T17:46:36.949Z,3.30
2019-05-10T17:49:05.381Z,3.40
2019-05-10T17:51:33.809Z,3.60
2019-05-10T17:54:03.744Z,3.37
2019-05-10T17:56:32.896Z,3.20
2019-05-10T17:59:05.935Z,3.20
2019-05-10T18:01:32.637Z,3.85
2019-05-10T18:04:01.066Z,3.97
2019-05-10T18:06:29.521Z,3.55
2019-05-10T18:08:57.956Z,3.62
2019-05-10T18:11:26.373Z,3.60
2019-05-10T18:13:54.798Z,3.40
2019-05-10T18:16:23.239Z,3.50
2019-05-10T18:18:51.952Z,3.50
2019-05-10T18:21:21.760Z,3.30
2019-05-10T18:23:52.607Z,3.90
2019-05-10T18:26:20.715Z,4.00
2019-05-10T18:28:49.144Z,3.55
2019-05-10T18:31:17.646Z,3.90
2019-05-10T18:33:54.301Z,3.67
2019-05-10T18:36:16.545Z,3.70
2019-05-10T18:38:45.055Z,3.90
2019-05-10T18:41:13.533Z,4.30
2019-05-10T18:43:42.955Z,3.70
2019-05-10T18:46:11.497Z,4.00
2019-05-10T18:48:39.937Z,5.60
2019-05-10T18:51:08.634Z,7.20
2019-05-10T18:53:37.071Z,6.90
2019-05-10T18:56:05.490Z,5.75
2019-05-10T18:58:33.938Z,6.28
2019-05-10T19:01:02.595Z,6.70
2019-05-10T19:03:33.633Z,6.10
2019-05-10T19:06:04.225Z,5.35
2019-05-10T19:08:31.477Z,4.70
2019-05-10T19:11:00.042Z,4.87
2019-05-10T19:13:32.640Z,5.35
2019-05-10T19:15:58.997Z,5.10
2019-05-10T19:18:27.489Z,4.65
2019-05-10T19:20:56.199Z,4.92
2019-05-10T19:23:24.652Z,5.10
2019-05-10T19:25:53.961Z,5.10
2019-05-10T19:28:26.786Z,5.10
2019-05-10T19:30:58.465Z,5.03
2019-05-10T19:33:29.725Z,4.60
2019-05-10T19:35:56.585Z,5.05
2019-05-10T19:38:25.017Z,5.17
2019-05-10T19:40:53.439Z,5.03
2019-05-10T19:43:23.827Z,4.90
2019-05-10T19:45:57.288Z,5.40
2019-05-10T19:48:35.452Z,5.40
2019-05-10T19:51:03.065Z,5.75
2019-05-10T19:53:36.470Z,5.67
2019-05-10T19:56:04.213Z,5.83
2019-05-10T19:58:34.048Z,5.25
2019-05-10T20:01:02.557Z,6.30
2019-05-10T20:03:30.974Z,5.00
2019-05-10T20:05:59.409Z,5.70
2019-05-10T20:08:28.350Z,5.70
2019-05-10T20:10:57.074Z,5.40
2019-05-10T20:13:28.075Z,5.62
2019-05-10T20:15:56.504Z,5.77
2019-05-10T20:18:24.925Z,6.00
2019-05-10T20:20:53.349Z,5.45
2019-05-10T20:23:21.780Z,6.10
2019-05-10T20:25:50.211Z,5.60
2019-05-10T20:28:18.676Z,5.70
2019-05-10T20:30:47.097Z,5.67
2019-05-10T20:33:15.588Z,5.92
2019-05-10T20:35:44.041Z,5.90
2019-05-10T20:38:12.449Z,5.70
2019-05-10T20:40:43.657Z,5.55
2019-05-10T20:43:12.079Z,5.83
2019-05-10T20:45:40.741Z,5.30
2019-05-10T20:48:10.616Z,5.58
2019-05-10T20:50:39.082Z,5.97
2019-05-10T20:53:07.668Z,5.28
2019-05-10T20:55:39.476Z,5.60
2019-05-10T20:58:08.073Z,5.20
2019-05-10T21:00:36.865Z,5.90
2019-05-10T21:03:05.411Z,5.40
2019-05-10T21:05:33.881Z,5.42
2019-05-10T21:08:16.039Z,5.80
2019-05-10T21:10:37.013Z,5.42
2019-05-10T21:13:02.722Z,5.40
2019-05-10T21:15:31.140Z,5.40
2019-05-10T21:17:59.575Z,6.30
2019-05-10T21:20:28.008Z,5.85
2019-05-10T21:22:56.520Z,6.15
2019-05-10T21:25:24.953Z,6.50
2019-05-10T21:27:53.388Z,6.60
2019-05-10T21:30:21.806Z,6.00
2019-05-10T21:32:50.225Z,5.90
2019-05-10T21:35:18.653Z,6.05
2019-05-10T21:37:47.093Z,5.80
2019-05-10T21:40:15.517Z,6.42
2019-05-10T21:42:43.950Z,6.35
2019-05-10T21:45:12.424Z,6.70
2019-05-10T21:47:51.310Z,6.72
2019-05-10T21:50:11.173Z,6.80
2019-05-10T21:52:39.609Z,6.17
2019-05-10T21:55:08.095Z,6.75
2019-05-10T21:57:36.516Z,6.28
2019-05-10T22:00:07.553Z,6.45
2019-05-10T22:02:35.985Z,7.35
2019-05-10T22:05:06.034Z,6.95
2019-05-10T22:07:34.500Z,6.90
2019-05-10T22:10:03.485Z,6.50
2019-05-10T22:12:31.927Z,6.80
2019-05-10T22:15:00.418Z,7.30
2019-05-10T22:17:28.850Z,7.60
2019-05-10T22:19:57.340Z,8.23
2019-05-10T22:22:25.772Z,8.00
2019-05-10T22:24:54.458Z,7.90
2019-05-10T22:27:22.878Z,7.40
2019-05-10T22:29:51.304Z,8.40
2019-05-10T22:32:19.729Z,7.50
2019-05-10T22:34:48.148Z,8.35
2019-05-10T22:37:16.589Z,8.23
2019-05-10T22:39:45.026Z,7.42
2019-05-10T22:42:13.700Z,8.30
2019-05-10T22:44:42.132Z,7.50
2019-05-10T22:47:10.641Z,8.95
2019-05-10T22:49:39.069Z,9.00
2019-05-10T22:52:07.483Z,9.07
2019-05-10T22:54:35.909Z,12.40
2019-05-10T22:57:04.343Z,11.40
2019-05-10T22:59:32.769Z,9.25
2019-05-10T23:02:01.223Z,9.03
2019-05-10T23:04:29.713Z,10.25
2019-05-10T23:06:58.147Z,10.47
2019-05-10T23:09:26.569Z,9.70
2019-05-10T23:11:54.997Z,9.10
2019-05-10T23:14:23.437Z,11.60
2019-05-10T23:16:51.876Z,9.03
2019-05-10T23:19:20.313Z,9.85
2019-05-10T23:21:48.804Z,9.90
2019-05-10T23:24:17.317Z,9.35
2019-05-10T23:26:46.109Z,10.33
2019-05-10T23:29:14.543Z,10.60
2019-05-10T23:31:42.980Z,11.00
2019-05-10T23:34:11.424Z,10.10
2019-05-10T23:36:39.840Z,9.90
2019-05-10T23:39:08.329Z,9.60
2019-05-10T23:41:36.753Z,10.58
2019-05-10T23:44:05.239Z,10.30
2019-05-10T23:46:33.705Z,9.35
2019-05-10T23:49:02.134Z,9.48
2019-05-10T23:51:30.569Z,14.23
2019-05-10T23:53:59.078Z,10.70
2019-05-10T23:56:27.517Z,9.70
2019-05-10T23:58:55.941Z,10.90
